Terminal Aerodrome Forecast
Issued by NWS

Home | Current Version | Previous Version | Text Only | Print | Product List | Glossary Off
Versions: 1 2 3 4 5 6 7 8 9 10 11 12 13 14 15 16 17 18 19 20 21 22 23 24 25 26 27 28 29 30

000
FTUS43 KGRB 192120 AAC
TAFAUW
TAF AMD
KAUW 192120Z 1921/2018 30010KT 1 1/2SM -RA BR SCT025 BKN035
      TEMPO 1921/1922 6SM -SHRA
     FM192200 30010KT P6SM VCSH SCT025 BKN035
     FM200300 32003KT 3SM BR SCT005 BKN010
     FM200600 VRB03KT 1/2SM FG OVC005
     FM201500 32005KT 3SM BR BKN008=

USA.gov is the U.S. government's official web portal to all federal, state and local government web resources and services.